sensor_id;sensor_type;location;lat;lon;timestamp;temperature;humidity
47168;DHT22;32931;47.778;17.806;2024-03-22T00:00:57;12.70;98.30
47168;DHT22;32931;47.778;17.806;2024-03-22T00:03:23;12.70;98.30
47168;DHT22;32931;47.778;17.806;2024-03-22T00:05:49;12.80;98.70
47168;DHT22;32931;47.778;17.806;2024-03-22T00:08:15;12.80;98.70
47168;DHT22;32931;47.778;17.806;2024-03-22T00:10:41;12.80;98.70
47168;DHT22;32931;47.778;17.806;2024-03-22T00:13:07;12.80;98.90
47168;DHT22;32931;47.778;17.806;2024-03-22T00:15:34;12.80;99.00
47168;DHT22;32931;47.778;17.806;2024-03-22T00:18:00;12.80;99.00
47168;DHT22;32931;47.778;17.806;2024-03-22T00:20:26;12.80;99.00
47168;DHT22;32931;47.778;17.806;2024-03-22T00:22:52;12.80;99.10
47168;DHT22;32931;47.778;17.806;2024-03-22T00:25:18;12.90;99.20
47168;DHT22;32931;47.778;17.806;2024-03-22T00:27:44;12.80;99.40
47168;DHT22;32931;47.778;17.806;2024-03-22T00:30:10;12.90;99.50
47168;DHT22;32931;47.778;17.806;2024-03-22T00:32:37;12.80;99.90
47168;DHT22;32931;47.778;17.806;2024-03-22T00:35:03;12.80;99.90
47168;DHT22;32931;47.778;17.806;2024-03-22T00:37:29;12.80;99.90
47168;DHT22;32931;47.778;17.806;2024-03-22T00:39:55;12.70;99.90
47168;DHT22;32931;47.778;17.806;2024-03-22T00:42:22;12.70;99.90
47168;DHT22;32931;47.778;17.806;2024-03-22T00:44:48;12.70;99.90
47168;DHT22;32931;47.778;17.806;2024-03-22T00:47:14;12.70;99.90
47168;DHT22;32931;47.778;17.806;2024-03-22T00:49:40;12.70;99.90
47168;DHT22;32931;47.778;17.806;2024-03-22T00:52:06;12.70;99.90
47168;DHT22;32931;47.778;17.806;2024-03-22T00:54:32;12.70;99.90
47168;DHT22;32931;47.778;17.806;2024-03-22T00:56:58;12.70;99.90
47168;DHT22;32931;47.778;17.806;2024-03-22T00:59:25;12.70;99.90
47168;DHT22;32931;47.778;17.806;2024-03-22T01:01:51;12.70;99.90
47168;DHT22;32931;47.778;17.806;2024-03-22T01:04:17;12.70;99.90
47168;DHT22;32931;47.778;17.806;2024-03-22T01:06:43;12.70;99.90
47168;DHT22;32931;47.778;17.806;2024-03-22T01:09:09;12.70;99.90
47168;DHT22;32931;47.778;17.806;2024-03-22T01:11:35;12.60;99.90
47168;DHT22;32931;47.778;17.806;2024-03-22T01:14:02;12.60;99.90
47168;DHT22;32931;47.778;17.806;2024-03-22T01:16:28;12.60;99.90
47168;DHT22;32931;47.778;17.806;2024-03-22T01:18:54;12.60;99.90
47168;DHT22;32931;47.778;17.806;2024-03-22T01:21:20;12.60;99.90
47168;DHT22;32931;47.778;17.806;2024-03-22T01:23:53;12.60;99.90
47168;DHT22;32931;47.778;17.806;2024-03-22T01:26:20;12.60;99.90
47168;DHT22;32931;47.778;17.806;2024-03-22T01:28:46;12.60;99.90
47168;DHT22;32931;47.778;17.806;2024-03-22T01:31:12;12.60;99.90
47168;DHT22;32931;47.778;17.806;2024-03-22T01:33:38;12.60;99.90
47168;DHT22;32931;47.778;17.806;2024-03-22T01:36:05;12.60;99.90
47168;DHT22;32931;47.778;17.806;2024-03-22T01:38:31;12.60;99.90
47168;DHT22;32931;47.778;17.806;2024-03-22T01:40:57;12.60;99.90
47168;DHT22;32931;47.778;17.806;2024-03-22T01:43:23;12.60;99.90
47168;DHT22;32931;47.778;17.806;2024-03-22T01:45:50;12.50;99.90
47168;DHT22;32931;47.778;17.806;2024-03-22T01:48:16;12.50;99.90
47168;DHT22;32931;47.778;17.806;2024-03-22T01:50:42;12.50;99.90
47168;DHT22;32931;47.778;17.806;2024-03-22T01:53:09;12.50;99.90
47168;DHT22;32931;47.778;17.806;2024-03-22T01:55:36;12.50;99.90
47168;DHT22;32931;47.778;17.806;2024-03-22T01:58:02;12.50;99.90
47168;DHT22;32931;47.778;17.806;2024-03-22T02:00:30;12.50;99.90
47168;DHT22;32931;47.778;17.806;2024-03-22T02:02:56;12.50;99.90
47168;DHT22;32931;47.778;17.806;2024-03-22T02:05:22;12.50;99.90
47168;DHT22;32931;47.778;17.806;2024-03-22T02:07:50;12.40;99.90
47168;DHT22;32931;47.778;17.806;2024-03-22T02:10:17;12.40;99.90
47168;DHT22;32931;47.778;17.806;2024-03-22T02:12:43;12.40;99.90
47168;DHT22;32931;47.778;17.806;2024-03-22T02:15:09;12.40;99.90
47168;DHT22;32931;47.778;17.806;2024-03-22T02:17:36;12.30;99.90
47168;DHT22;32931;47.778;17.806;2024-03-22T02:20:02;12.30;99.90
47168;DHT22;32931;47.778;17.806;2024-03-22T02:22:30;12.30;99.90
47168;DHT22;32931;47.778;17.806;2024-03-22T02:24:56;12.30;99.90
47168;DHT22;32931;47.778;17.806;2024-03-22T02:27:22;12.30;99.90
47168;DHT22;32931;47.778;17.806;2024-03-22T02:29:48;12.30;99.90
47168;DHT22;32931;47.778;17.806;2024-03-22T02:32:15;12.30;99.90
47168;DHT22;32931;47.778;17.806;2024-03-22T02:34:41;12.40;99.90
47168;DHT22;32931;47.778;17.806;2024-03-22T02:37:07;12.30;99.90
47168;DHT22;32931;47.778;17.806;2024-03-22T02:39:33;12.40;99.90
47168;DHT22;32931;47.778;17.806;2024-03-22T02:41:59;12.40;99.90
47168;DHT22;32931;47.778;17.806;2024-03-22T02:44:25;12.30;99.90
47168;DHT22;32931;47.778;17.806;2024-03-22T02:46:52;12.40;99.90
47168;DHT22;32931;47.778;17.806;2024-03-22T02:49:18;12.40;99.90
47168;DHT22;32931;47.778;17.806;2024-03-22T02:51:44;12.40;99.90
47168;DHT22;32931;47.778;17.806;2024-03-22T02:54:10;12.40;99.90
47168;DHT22;32931;47.778;17.806;2024-03-22T02:56:36;12.40;99.90
47168;DHT22;32931;47.778;17.806;2024-03-22T02:59:03;12.40;99.90
47168;DHT22;32931;47.778;17.806;2024-03-22T03:01:29;12.40;99.90
47168;DHT22;32931;47.778;17.806;2024-03-22T03:03:55;12.40;99.90
47168;DHT22;32931;47.778;17.806;2024-03-22T03:06:21;12.30;99.90
47168;DHT22;32931;47.778;17.806;2024-03-22T03:08:48;12.30;99.90
47168;DHT22;32931;47.778;17.806;2024-03-22T03:11:17;12.30;99.90
47168;DHT22;32931;47.778;17.806;2024-03-22T03:13:43;12.30;99.90
47168;DHT22;32931;47.778;17.806;2024-03-22T03:16:09;12.30;99.90
47168;DHT22;32931;47.778;17.806;2024-03-22T03:18:35;12.30;99.90
47168;DHT22;32931;47.778;17.806;2024-03-22T03:21:01;12.30;99.90
47168;DHT22;32931;47.778;17.806;2024-03-22T03:23:27;12.40;99.90
47168;DHT22;32931;47.778;17.806;2024-03-22T03:25:54;12.40;99.90
47168;DHT22;32931;47.778;17.806;2024-03-22T03:28:20;12.40;99.90
47168;DHT22;32931;47.778;17.806;2024-03-22T03:30:46;12.40;99.90
47168;DHT22;32931;47.778;17.806;2024-03-22T03:33:12;12.40;99.90
47168;DHT22;32931;47.778;17.806;2024-03-22T03:35:38;12.40;99.90
47168;DHT22;32931;47.778;17.806;2024-03-22T03:38:04;12.40;99.90
47168;DHT22;32931;47.778;17.806;2024-03-22T03:40:30;12.40;99.90
47168;DHT22;32931;47.778;17.806;2024-03-22T03:42:56;12.30;99.90
47168;DHT22;32931;47.778;17.806;2024-03-22T03:45:23;12.30;99.90
47168;DHT22;32931;47.778;17.806;2024-03-22T03:47:49;12.30;99.90
47168;DHT22;32931;47.778;17.806;2024-03-22T03:50:15;12.30;99.90
47168;DHT22;32931;47.778;17.806;2024-03-22T03:52:41;12.30;99.90
47168;DHT22;32931;47.778;17.806;2024-03-22T03:55:07;12.30;99.90
47168;DHT22;32931;47.778;17.806;2024-03-22T03:57:33;12.30;99.90
47168;DHT22;32931;47.778;17.806;2024-03-22T04:00:00;12.30;99.90
47168;DHT22;32931;47.778;17.806;2024-03-22T04:02:26;12.30;99.90
47168;DHT22;32931;47.778;17.806;2024-03-22T04:04:52;12.30;99.90
47168;DHT22;32931;47.778;17.806;2024-03-22T04:07:20;12.20;99.90
47168;DHT22;32931;47.778;17.806;2024-03-22T04:09:46;12.20;99.90
47168;DHT22;32931;47.778;17.806;2024-03-22T04:12:13;12.20;99.90
47168;DHT22;32931;47.778;17.806;2024-03-22T04:14:39;12.20;99.90
47168;DHT22;32931;47.778;17.806;2024-03-22T04:17:05;12.20;99.90
47168;DHT22;32931;47.778;17.806;2024-03-22T04:19:31;12.20;99.90
47168;DHT22;32931;47.778;17.806;2024-03-22T04:21:58;12.30;99.90
47168;DHT22;32931;47.778;17.806;2024-03-22T04:24:24;12.30;99.90
47168;DHT22;32931;47.778;17.806;2024-03-22T04:26:50;12.30;99.90
47168;DHT22;32931;47.778;17.806;2024-03-22T04:29:16;12.30;99.90
47168;DHT22;32931;47.778;17.806;2024-03-22T04:31:42;12.30;99.90
47168;DHT22;32931;47.778;17.806;2024-03-22T04:34:08;12.30;99.90
47168;DHT22;32931;47.778;17.806;2024-03-22T04:36:36;12.30;99.90
47168;DHT22;32931;47.778;17.806;2024-03-22T04:39:02;12.30;99.90
47168;DHT22;32931;47.778;17.806;2024-03-22T04:41:29;12.30;99.90
47168;DHT22;32931;47.778;17.806;2024-03-22T04:43:55;12.30;99.90
47168;DHT22;32931;47.778;17.806;2024-03-22T04:46:22;12.30;99.90
47168;DHT22;32931;47.778;17.806;2024-03-22T04:48:48;12.30;99.90
47168;DHT22;32931;47.778;17.806;2024-03-22T04:51:15;12.30;99.90
47168;DHT22;32931;47.778;17.806;2024-03-22T04:53:42;12.30;99.90
47168;DHT22;32931;47.778;17.806;2024-03-22T04:56:08;12.20;99.90
47168;DHT22;32931;47.778;17.806;2024-03-22T04:58:35;12.30;99.90
47168;DHT22;32931;47.778;17.806;2024-03-22T05:01:01;12.30;99.90
47168;DHT22;32931;47.778;17.806;2024-03-22T05:03:27;12.30;99.90
47168;DHT22;32931;47.778;17.806;2024-03-22T05:05:53;12.30;99.90
47168;DHT22;32931;47.778;17.806;2024-03-22T05:08:20;12.30;99.90
47168;DHT22;32931;47.778;17.806;2024-03-22T05:10:46;12.30;99.90
47168;DHT22;32931;47.778;17.806;2024-03-22T05:13:12;12.30;99.90
47168;DHT22;32931;47.778;17.806;2024-03-22T05:15:39;12.30;99.90
47168;DHT22;32931;47.778;17.806;2024-03-22T05:18:05;12.30;99.90
47168;DHT22;32931;47.778;17.806;2024-03-22T05:20:31;12.30;99.90
47168;DHT22;32931;47.778;17.806;2024-03-22T05:22:57;12.30;99.90
47168;DHT22;32931;47.778;17.806;2024-03-22T05:25:23;12.30;99.90
47168;DHT22;32931;47.778;17.806;2024-03-22T05:27:50;12.30;99.90
47168;DHT22;32931;47.778;17.806;2024-03-22T05:30:16;12.40;99.90
47168;DHT22;32931;47.778;17.806;2024-03-22T05:32:42;12.40;99.90
47168;DHT22;32931;47.778;17.806;2024-03-22T05:35:08;12.40;99.90
47168;DHT22;32931;47.778;17.806;2024-03-22T05:37:35;12.40;99.90
47168;DHT22;32931;47.778;17.806;2024-03-22T05:40:02;12.40;99.90
47168;DHT22;32931;47.778;17.806;2024-03-22T05:42:30;12.50;99.90
47168;DHT22;32931;47.778;17.806;2024-03-22T05:44:56;12.40;99.90
47168;DHT22;32931;47.778;17.806;2024-03-22T05:47:22;12.50;99.90
47168;DHT22;32931;47.778;17.806;2024-03-22T05:49:48;12.50;99.90
47168;DHT22;32931;47.778;17.806;2024-03-22T05:52:14;12.50;99.90
47168;DHT22;32931;47.778;17.806;2024-03-22T05:54:41;12.50;99.90
47168;DHT22;32931;47.778;17.806;2024-03-22T05:57:07;12.60;99.90
47168;DHT22;32931;47.778;17.806;2024-03-22T05:59:33;12.50;99.90
47168;DHT22;32931;47.778;17.806;2024-03-22T06:02:00;12.60;99.90
47168;DHT22;32931;47.778;17.806;2024-03-22T06:04:27;12.60;99.90
47168;DHT22;32931;47.778;17.806;2024-03-22T06:06:53;12.60;99.90
47168;DHT22;32931;47.778;17.806;2024-03-22T06:09:19;12.60;99.90
47168;DHT22;32931;47.778;17.806;2024-03-22T06:12:01;12.60;99.90
47168;DHT22;32931;47.778;17.806;2024-03-22T06:14:28;12.70;99.90
47168;DHT22;32931;47.778;17.806;2024-03-22T06:16:55;12.70;99.90
47168;DHT22;32931;47.778;17.806;2024-03-22T06:19:21;12.80;99.90
47168;DHT22;32931;47.778;17.806;2024-03-22T06:21:47;12.80;99.90
47168;DHT22;32931;47.778;17.806;2024-03-22T06:24:13;12.80;99.90
47168;DHT22;32931;47.778;17.806;2024-03-22T06:26:39;12.90;99.90
47168;DHT22;32931;47.778;17.806;2024-03-22T06:29:06;12.90;99.90
47168;DHT22;32931;47.778;17.806;2024-03-22T06:31:32;13.00;99.90
47168;DHT22;32931;47.778;17.806;2024-03-22T06:33:58;13.00;99.90
47168;DHT22;32931;47.778;17.806;2024-03-22T06:36:29;13.00;99.90
47168;DHT22;32931;47.778;17.806;2024-03-22T06:38:56;13.00;99.90
47168;DHT22;32931;47.778;17.806;2024-03-22T06:41:22;13.00;99.90
47168;DHT22;32931;47.778;17.806;2024-03-22T06:43:48;13.00;99.90
47168;DHT22;32931;47.778;17.806;2024-03-22T06:46:15;13.00;99.90
47168;DHT22;32931;47.778;17.806;2024-03-22T06:48:41;13.10;99.90
47168;DHT22;32931;47.778;17.806;2024-03-22T06:51:07;13.10;99.90
47168;DHT22;32931;47.778;17.806;2024-03-22T06:53:34;13.20;99.90
47168;DHT22;32931;47.778;17.806;2024-03-22T06:56:00;13.20;99.90
47168;DHT22;32931;47.778;17.806;2024-03-22T06:58:26;13.20;99.90
47168;DHT22;32931;47.778;17.806;2024-03-22T07:00:52;13.30;99.90
47168;DHT22;32931;47.778;17.806;2024-03-22T07:03:18;13.40;99.90
47168;DHT22;32931;47.778;17.806;2024-03-22T07:05:47;13.50;99.90
47168;DHT22;32931;47.778;17.806;2024-03-22T07:08:13;13.40;99.90
47168;DHT22;32931;47.778;17.806;2024-03-22T07:10:39;13.50;99.90
47168;DHT22;32931;47.778;17.806;2024-03-22T07:13:06;13.60;99.90
47168;DHT22;32931;47.778;17.806;2024-03-22T07:15:32;13.70;99.90
47168;DHT22;32931;47.778;17.806;2024-03-22T07:17:59;13.80;99.90
47168;DHT22;32931;47.778;17.806;2024-03-22T07:20:26;13.80;99.90
47168;DHT22;32931;47.778;17.806;2024-03-22T07:22:52;13.80;99.90
47168;DHT22;32931;47.778;17.806;2024-03-22T07:25:19;13.90;99.90
47168;DHT22;32931;47.778;17.806;2024-03-22T07:27:45;13.90;99.90
47168;DHT22;32931;47.778;17.806;2024-03-22T07:30:12;13.90;99.90
47168;DHT22;32931;47.778;17.806;2024-03-22T07:32:38;14.00;99.90
47168;DHT22;32931;47.778;17.806;2024-03-22T07:35:04;14.00;99.90
47168;DHT22;32931;47.778;17.806;2024-03-22T07:37:31;14.10;99.90
47168;DHT22;32931;47.778;17.806;2024-03-22T07:39:57;14.10;99.90
47168;DHT22;32931;47.778;17.806;2024-03-22T07:42:23;14.20;99.90
47168;DHT22;32931;47.778;17.806;2024-03-22T07:44:49;14.20;99.90
47168;DHT22;32931;47.778;17.806;2024-03-22T07:47:15;14.30;99.90
47168;DHT22;32931;47.778;17.806;2024-03-22T07:49:41;14.30;99.90
47168;DHT22;32931;47.778;17.806;2024-03-22T07:52:08;14.40;99.90
47168;DHT22;32931;47.778;17.806;2024-03-22T07:54:34;14.50;99.90
47168;DHT22;32931;47.778;17.806;2024-03-22T07:57:00;14.60;99.90
47168;DHT22;32931;47.778;17.806;2024-03-22T07:59:26;14.60;99.90
47168;DHT22;32931;47.778;17.806;2024-03-22T08:01:52;14.70;99.90
47168;DHT22;32931;47.778;17.806;2024-03-22T08:04:18;14.80;99.90
47168;DHT22;32931;47.778;17.806;2024-03-22T08:18:17;15.00;99.90
47168;DHT22;32931;47.778;17.806;2024-03-22T08:20:43;15.10;99.90
47168;DHT22;32931;47.778;17.806;2024-03-22T08:23:09;15.10;99.90
47168;DHT22;32931;47.778;17.806;2024-03-22T08:25:36;15.20;99.90
47168;DHT22;32931;47.778;17.806;2024-03-22T08:28:03;15.20;99.90
47168;DHT22;32931;47.778;17.806;2024-03-22T08:30:29;15.30;99.90
47168;DHT22;32931;47.778;17.806;2024-03-22T08:32:55;15.40;99.90
47168;DHT22;32931;47.778;17.806;2024-03-22T08:35:21;15.40;99.90
47168;DHT22;32931;47.778;17.806;2024-03-22T08:37:48;15.50;99.90
47168;DHT22;32931;47.778;17.806;2024-03-22T08:40:14;15.50;99.90
47168;DHT22;32931;47.778;17.806;2024-03-22T08:42:40;15.60;99.90
47168;DHT22;32931;47.778;17.806;2024-03-22T08:45:08;15.70;99.90
47168;DHT22;32931;47.778;17.806;2024-03-22T08:47:34;15.70;99.90
47168;DHT22;32931;47.778;17.806;2024-03-22T08:50:00;15.80;99.90
47168;DHT22;32931;47.778;17.806;2024-03-22T08:52:27;15.90;99.90
47168;DHT22;32931;47.778;17.806;2024-03-22T08:54:53;16.00;99.90
47168;DHT22;32931;47.778;17.806;2024-03-22T08:57:19;16.00;99.90
47168;DHT22;32931;47.778;17.806;2024-03-22T08:59:46;16.10;99.90
47168;DHT22;32931;47.778;17.806;2024-03-22T09:02:12;16.10;99.90
47168;DHT22;32931;47.778;17.806;2024-03-22T09:04:38;16.20;99.60
47168;DHT22;32931;47.778;17.806;2024-03-22T09:07:05;16.20;99.40
47168;DHT22;32931;47.778;17.806;2024-03-22T09:09:31;16.30;99.50
47168;DHT22;32931;47.778;17.806;2024-03-22T09:11:57;16.30;99.00
47168;DHT22;32931;47.778;17.806;2024-03-22T09:14:23;16.40;98.70
47168;DHT22;32931;47.778;17.806;2024-03-22T09:16:49;16.50;98.70
47168;DHT22;32931;47.778;17.806;2024-03-22T09:19:16;16.60;98.50
47168;DHT22;32931;47.778;17.806;2024-03-22T09:21:42;16.60;98.20
47168;DHT22;32931;47.778;17.806;2024-03-22T09:24:08;16.70;97.90
47168;DHT22;32931;47.778;17.806;2024-03-22T09:26:35;16.80;97.70
47168;DHT22;32931;47.778;17.806;2024-03-22T09:29:01;16.80;97.10
47168;DHT22;32931;47.778;17.806;2024-03-22T09:31:30;16.90;97.30
47168;DHT22;32931;47.778;17.806;2024-03-22T09:33:57;16.80;96.00
47168;DHT22;32931;47.778;17.806;2024-03-22T09:36:23;16.70;96.40
47168;DHT22;32931;47.778;17.806;2024-03-22T09:38:50;16.70;96.10
47168;DHT22;32931;47.778;17.806;2024-03-22T09:41:24;16.70;96.20
47168;DHT22;32931;47.778;17.806;2024-03-22T09:43:53;16.80;96.40
47168;DHT22;32931;47.778;17.806;2024-03-22T09:46:20;16.90;95.80
47168;DHT22;32931;47.778;17.806;2024-03-22T09:48:49;16.80;95.70
47168;DHT22;32931;47.778;17.806;2024-03-22T09:51:16;17.00;95.90
47168;DHT22;32931;47.778;17.806;2024-03-22T09:53:44;17.00;95.40
47168;DHT22;32931;47.778;17.806;2024-03-22T09:56:14;16.90;95.50
47168;DHT22;32931;47.778;17.806;2024-03-22T09:58:41;16.80;95.10
47168;DHT22;32931;47.778;17.806;2024-03-22T10:01:08;16.90;95.70
47168;DHT22;32931;47.778;17.806;2024-03-22T10:03:34;16.90;95.40
47168;DHT22;32931;47.778;17.806;2024-03-22T10:06:00;16.90;95.30
47168;DHT22;32931;47.778;17.806;2024-03-22T10:08:27;16.80;94.70
47168;DHT22;32931;47.778;17.806;2024-03-22T10:10:53;16.80;94.50
47168;DHT22;32931;47.778;17.806;2024-03-22T10:13:20;16.80;94.40
47168;DHT22;32931;47.778;17.806;2024-03-22T10:15:47;16.80;94.10
47168;DHT22;32931;47.778;17.806;2024-03-22T10:18:14;16.90;94.00
47168;DHT22;32931;47.778;17.806;2024-03-22T10:20:40;17.00;93.50
47168;DHT22;32931;47.778;17.806;2024-03-22T10:23:08;17.10;93.70
47168;DHT22;32931;47.778;17.806;2024-03-22T10:25:34;17.20;93.00
47168;DHT22;32931;47.778;17.806;2024-03-22T10:28:01;17.20;92.10
47168;DHT22;32931;47.778;17.806;2024-03-22T10:30:28;17.20;92.20
47168;DHT22;32931;47.778;17.806;2024-03-22T10:32:55;17.30;91.50
47168;DHT22;32931;47.778;17.806;2024-03-22T10:35:21;17.30;91.20
47168;DHT22;32931;47.778;17.806;2024-03-22T10:37:49;17.40;91.30
47168;DHT22;32931;47.778;17.806;2024-03-22T10:40:16;17.30;90.90
47168;DHT22;32931;47.778;17.806;2024-03-22T10:42:43;17.30;90.60
47168;DHT22;32931;47.778;17.806;2024-03-22T10:45:11;17.30;91.10
47168;DHT22;32931;47.778;17.806;2024-03-22T10:47:38;17.50;91.20
47168;DHT22;32931;47.778;17.806;2024-03-22T10:50:06;17.70;91.30
47168;DHT22;32931;47.778;17.806;2024-03-22T10:52:57;17.70;91.10
47168;DHT22;32931;47.778;17.806;2024-03-22T10:55:28;17.70;85.90
47168;DHT22;32931;47.778;17.806;2024-03-22T10:57:57;17.70;85.70
47168;DHT22;32931;47.778;17.806;2024-03-22T11:00:30;17.50;84.60
47168;DHT22;32931;47.778;17.806;2024-03-22T11:02:57;17.50;81.60
47168;DHT22;32931;47.778;17.806;2024-03-22T11:05:23;17.50;84.60
47168;DHT22;32931;47.778;17.806;2024-03-22T11:08:02;17.50;83.40
47168;DHT22;32931;47.778;17.806;2024-03-22T11:10:34;17.50;83.90
47168;DHT22;32931;47.778;17.806;2024-03-22T11:13:04;17.60;82.60
47168;DHT22;32931;47.778;17.806;2024-03-22T11:15:33;17.70;83.80
47168;DHT22;32931;47.778;17.806;2024-03-22T11:17:59;17.80;83.60
47168;DHT22;32931;47.778;17.806;2024-03-22T11:20:29;17.80;83.30
47168;DHT22;32931;47.778;17.806;2024-03-22T11:22:58;17.80;82.70
47168;DHT22;32931;47.778;17.806;2024-03-22T11:25:24;17.90;83.50
47168;DHT22;32931;47.778;17.806;2024-03-22T11:27:51;17.90;81.50
47168;DHT22;32931;47.778;17.806;2024-03-22T11:30:17;17.80;81.70
47168;DHT22;32931;47.778;17.806;2024-03-22T11:32:44;17.80;82.00
47168;DHT22;32931;47.778;17.806;2024-03-22T11:35:13;17.70;82.10
47168;DHT22;32931;47.778;17.806;2024-03-22T11:37:40;17.70;82.00
47168;DHT22;32931;47.778;17.806;2024-03-22T11:40:09;17.70;81.60
47168;DHT22;32931;47.778;17.806;2024-03-22T11:42:44;17.70;81.30
47168;DHT22;32931;47.778;17.806;2024-03-22T11:45:15;17.80;83.00
47168;DHT22;32931;47.778;17.806;2024-03-22T11:47:42;17.90;82.90
47168;DHT22;32931;47.778;17.806;2024-03-22T11:50:08;17.90;82.00
47168;DHT22;32931;47.778;17.806;2024-03-22T11:52:36;17.80;82.90
47168;DHT22;32931;47.778;17.806;2024-03-22T11:55:02;17.90;82.90
47168;DHT22;32931;47.778;17.806;2024-03-22T11:57:30;17.90;81.70
47168;DHT22;32931;47.778;17.806;2024-03-22T12:00:00;17.90;82.10
47168;DHT22;32931;47.778;17.806;2024-03-22T12:02:27;17.90;81.80
47168;DHT22;32931;47.778;17.806;2024-03-22T12:04:53;17.90;83.40
47168;DHT22;32931;47.778;17.806;2024-03-22T12:07:19;17.90;82.90
47168;DHT22;32931;47.778;17.806;2024-03-22T12:09:45;18.10;83.40
47168;DHT22;32931;47.778;17.806;2024-03-22T12:12:12;18.20;82.60
47168;DHT22;32931;47.778;17.806;2024-03-22T12:14:39;18.20;82.60
47168;DHT22;32931;47.778;17.806;2024-03-22T12:17:06;18.40;83.10
47168;DHT22;32931;47.778;17.806;2024-03-22T12:19:33;18.40;82.60
47168;DHT22;32931;47.778;17.806;2024-03-22T12:21:59;18.50;82.30
47168;DHT22;32931;47.778;17.806;2024-03-22T12:24:26;18.60;82.20
47168;DHT22;32931;47.778;17.806;2024-03-22T12:26:55;18.80;82.50
47168;DHT22;32931;47.778;17.806;2024-03-22T12:29:22;19.00;82.10
47168;DHT22;32931;47.778;17.806;2024-03-22T12:31:48;19.20;81.50
47168;DHT22;32931;47.778;17.806;2024-03-22T12:34:14;19.30;81.00
47168;DHT22;32931;47.778;17.806;2024-03-22T12:36:40;19.30;78.80
47168;DHT22;32931;47.778;17.806;2024-03-22T12:39:06;19.10;78.70
47168;DHT22;32931;47.778;17.806;2024-03-22T12:41:33;19.10;79.30
47168;DHT22;32931;47.778;17.806;2024-03-22T12:44:00;19.20;78.40
47168;DHT22;32931;47.778;17.806;2024-03-22T12:46:26;19.10;77.80
47168;DHT22;32931;47.778;17.806;2024-03-22T12:48:55;19.30;79.20
47168;DHT22;32931;47.778;17.806;2024-03-22T12:51:22;19.40;79.50
47168;DHT22;32931;47.778;17.806;2024-03-22T12:53:48;19.50;78.70
47168;DHT22;32931;47.778;17.806;2024-03-22T12:56:14;19.50;77.80
47168;DHT22;32931;47.778;17.806;2024-03-22T12:58:41;19.40;75.90
47168;DHT22;32931;47.778;17.806;2024-03-22T13:01:08;19.30;74.60
47168;DHT22;32931;47.778;17.806;2024-03-22T13:03:34;19.40;74.80
47168;DHT22;32931;47.778;17.806;2024-03-22T13:06:01;19.40;75.50
47168;DHT22;32931;47.778;17.806;2024-03-22T13:08:27;19.40;73.30
47168;DHT22;32931;47.778;17.806;2024-03-22T13:10:53;19.40;74.10
47168;DHT22;32931;47.778;17.806;2024-03-22T13:13:19;19.30;73.70
47168;DHT22;32931;47.778;17.806;2024-03-22T13:15:45;19.30;74.00
47168;DHT22;32931;47.778;17.806;2024-03-22T13:18:13;19.40;74.60
47168;DHT22;32931;47.778;17.806;2024-03-22T13:20:39;19.40;75.10
47168;DHT22;32931;47.778;17.806;2024-03-22T13:23:05;19.50;75.80
47168;DHT22;32931;47.778;17.806;2024-03-22T13:25:31;19.70;76.20
47168;DHT22;32931;47.778;17.806;2024-03-22T13:27:58;19.80;74.80
47168;DHT22;32931;47.778;17.806;2024-03-22T13:30:25;19.80;74.60
47168;DHT22;32931;47.778;17.806;2024-03-22T13:32:51;19.80;74.40
47168;DHT22;32931;47.778;17.806;2024-03-22T13:35:17;19.80;74.00
47168;DHT22;32931;47.778;17.806;2024-03-22T13:37:43;19.60;72.60
47168;DHT22;32931;47.778;17.806;2024-03-22T13:40:10;19.30;71.60
47168;DHT22;32931;47.778;17.806;2024-03-22T13:42:36;19.40;72.50
47168;DHT22;32931;47.778;17.806;2024-03-22T13:45:03;19.30;71.70
47168;DHT22;32931;47.778;17.806;2024-03-22T13:47:29;19.40;72.40
47168;DHT22;32931;47.778;17.806;2024-03-22T13:49:56;19.50;72.90
47168;DHT22;32931;47.778;17.806;2024-03-22T13:52:22;19.30;73.20
47168;DHT22;32931;47.778;17.806;2024-03-22T13:54:48;19.20;72.20
47168;DHT22;32931;47.778;17.806;2024-03-22T13:57:16;19.20;72.60
47168;DHT22;32931;47.778;17.806;2024-03-22T13:59:42;19.20;73.20
47168;DHT22;32931;47.778;17.806;2024-03-22T14:02:08;19.20;73.20
47168;DHT22;32931;47.778;17.806;2024-03-22T14:04:35;19.40;73.70
47168;DHT22;32931;47.778;17.806;2024-03-22T14:07:01;19.50;74.50
47168;DHT22;32931;47.778;17.806;2024-03-22T14:09:33;19.60;74.60
47168;DHT22;32931;47.778;17.806;2024-03-22T14:12:00;19.70;73.80
47168;DHT22;32931;47.778;17.806;2024-03-22T14:14:27;19.80;73.50
47168;DHT22;32931;47.778;17.806;2024-03-22T14:16:53;19.80;73.20
47168;DHT22;32931;47.778;17.806;2024-03-22T14:19:20;20.00;73.30
47168;DHT22;32931;47.778;17.806;2024-03-22T14:21:46;20.40;72.70
47168;DHT22;32931;47.778;17.806;2024-03-22T14:24:13;20.70;72.70
47168;DHT22;32931;47.778;17.806;2024-03-22T14:26:39;20.80;71.70
47168;DHT22;32931;47.778;17.806;2024-03-22T14:29:09;20.80;71.10
47168;DHT22;32931;47.778;17.806;2024-03-22T14:31:36;20.70;70.70
47168;DHT22;32931;47.778;17.806;2024-03-22T14:34:03;20.60;70.70
47168;DHT22;32931;47.778;17.806;2024-03-22T14:36:29;20.50;70.40
47168;DHT22;32931;47.778;17.806;2024-03-22T14:38:55;20.50;71.20
47168;DHT22;32931;47.778;17.806;2024-03-22T14:41:21;20.40;72.20
47168;DHT22;32931;47.778;17.806;2024-03-22T14:43:48;20.40;71.20
47168;DHT22;32931;47.778;17.806;2024-03-22T14:46:14;20.30;71.00
47168;DHT22;32931;47.778;17.806;2024-03-22T14:48:41;20.40;70.80
47168;DHT22;32931;47.778;17.806;2024-03-22T14:51:08;20.30;70.50
47168;DHT22;32931;47.778;17.806;2024-03-22T14:53:35;20.60;70.50
47168;DHT22;32931;47.778;17.806;2024-03-22T14:56:03;21.10;69.70
47168;DHT22;32931;47.778;17.806;2024-03-22T14:58:34;21.70;69.40
47168;DHT22;32931;47.778;17.806;2024-03-22T15:01:04;22.20;67.70
47168;DHT22;32931;47.778;17.806;2024-03-22T15:03:31;22.40;67.40
47168;DHT22;32931;47.778;17.806;2024-03-22T15:05:59;22.40;66.20
47168;DHT22;32931;47.778;17.806;2024-03-22T15:08:26;22.30;65.30
47168;DHT22;32931;47.778;17.806;2024-03-22T15:10:54;22.50;65.40
47168;DHT22;32931;47.778;17.806;2024-03-22T15:13:21;22.60;65.00
47168;DHT22;32931;47.778;17.806;2024-03-22T15:15:57;22.70;65.00
47168;DHT22;32931;47.778;17.806;2024-03-22T15:18:24;22.90;63.80
47168;DHT22;32931;47.778;17.806;2024-03-22T15:20:50;23.10;64.40
47168;DHT22;32931;47.778;17.806;2024-03-22T15:23:19;22.90;63.50